sensor_id;sensor_type;location;lat;lon;timestamp;temperature;humidity
5128;DHT22;2582;48.770;9.190;2023-05-20T00:01:58;13.70;99.90
5128;DHT22;2582;48.770;9.190;2023-05-20T00:04:24;13.70;99.90
5128;DHT22;2582;48.770;9.190;2023-05-20T00:06:49;13.80;99.90
5128;DHT22;2582;48.770;9.190;2023-05-20T00:09:15;13.90;99.90
5128;DHT22;2582;48.770;9.190;2023-05-20T00:11:41;13.70;99.90
5128;DHT22;2582;48.770;9.190;2023-05-20T00:14:07;13.90;99.90
5128;DHT22;2582;48.770;9.190;2023-05-20T00:16:33;13.90;99.90
5128;DHT22;2582;48.770;9.190;2023-05-20T00:18:58;13.80;99.90
5128;DHT22;2582;48.770;9.190;2023-05-20T00:21:24;13.80;99.90
5128;DHT22;2582;48.770;9.190;2023-05-20T00:23:50;13.90;99.90
5128;DHT22;2582;48.770;9.190;2023-05-20T00:26:16;13.90;99.90
5128;DHT22;2582;48.770;9.190;2023-05-20T00:28:41;13.90;99.90
5128;DHT22;2582;48.770;9.190;2023-05-20T00:31:07;13.80;99.90
5128;DHT22;2582;48.770;9.190;2023-05-20T00:33:32;13.80;99.90
5128;DHT22;2582;48.770;9.190;2023-05-20T00:36:00;13.90;99.90
5128;DHT22;2582;48.770;9.190;2023-05-20T00:38:26;14.00;99.90
5128;DHT22;2582;48.770;9.190;2023-05-20T00:40:51;14.00;99.90
5128;DHT22;2582;48.770;9.190;2023-05-20T00:43:17;13.90;99.90
5128;DHT22;2582;48.770;9.190;2023-05-20T00:45:45;13.90;99.90
5128;DHT22;2582;48.770;9.190;2023-05-20T00:48:11;13.90;99.90
5128;DHT22;2582;48.770;9.190;2023-05-20T00:50:37;13.90;99.90
5128;DHT22;2582;48.770;9.190;2023-05-20T00:53:04;14.00;99.90
5128;DHT22;2582;48.770;9.190;2023-05-20T00:55:30;14.00;99.90
5128;DHT22;2582;48.770;9.190;2023-05-20T00:57:56;14.00;99.90
5128;DHT22;2582;48.770;9.190;2023-05-20T01:00:21;14.20;99.90
5128;DHT22;2582;48.770;9.190;2023-05-20T01:02:47;14.10;99.90
5128;DHT22;2582;48.770;9.190;2023-05-20T01:05:13;14.20;99.90
5128;DHT22;2582;48.770;9.190;2023-05-20T01:07:38;14.20;99.90
5128;DHT22;2582;48.770;9.190;2023-05-20T01:10:05;14.20;99.90
5128;DHT22;2582;48.770;9.190;2023-05-20T01:12:36;14.30;99.90
5128;DHT22;2582;48.770;9.190;2023-05-20T01:15:08;14.30;99.90
5128;DHT22;2582;48.770;9.190;2023-05-20T01:17:38;14.30;99.90
5128;DHT22;2582;48.770;9.190;2023-05-20T01:20:05;14.40;99.90
5128;DHT22;2582;48.770;9.190;2023-05-20T01:22:32;14.40;99.90
5128;DHT22;2582;48.770;9.190;2023-05-20T01:24:57;14.50;99.90
5128;DHT22;2582;48.770;9.190;2023-05-20T01:27:23;14.50;99.90
5128;DHT22;2582;48.770;9.190;2023-05-20T01:29:50;14.60;99.90
5128;DHT22;2582;48.770;9.190;2023-05-20T01:32:43;14.50;99.90
5128;DHT22;2582;48.770;9.190;2023-05-20T01:35:09;14.30;99.90
5128;DHT22;2582;48.770;9.190;2023-05-20T01:37:37;14.30;99.90
5128;DHT22;2582;48.770;9.190;2023-05-20T01:40:05;14.40;99.90
5128;DHT22;2582;48.770;9.190;2023-05-20T01:42:32;14.40;99.90
5128;DHT22;2582;48.770;9.190;2023-05-20T01:44:58;14.40;99.90
5128;DHT22;2582;48.770;9.190;2023-05-20T01:47:24;14.50;99.90
5128;DHT22;2582;48.770;9.190;2023-05-20T01:49:50;14.40;99.90
5128;DHT22;2582;48.770;9.190;2023-05-20T01:52:19;14.40;99.90
5128;DHT22;2582;48.770;9.190;2023-05-20T01:54:44;14.40;99.90
5128;DHT22;2582;48.770;9.190;2023-05-20T01:57:19;14.40;99.90
5128;DHT22;2582;48.770;9.190;2023-05-20T01:59:44;14.40;99.90
5128;DHT22;2582;48.770;9.190;2023-05-20T02:02:10;14.50;99.90
5128;DHT22;2582;48.770;9.190;2023-05-20T02:04:35;14.50;99.90
5128;DHT22;2582;48.770;9.190;2023-05-20T02:07:01;14.40;99.90
5128;DHT22;2582;48.770;9.190;2023-05-20T02:09:27;14.50;99.90
5128;DHT22;2582;48.770;9.190;2023-05-20T02:11:52;14.50;99.90
5128;DHT22;2582;48.770;9.190;2023-05-20T02:14:18;14.50;99.90
5128;DHT22;2582;48.770;9.190;2023-05-20T02:16:45;14.40;99.90
5128;DHT22;2582;48.770;9.190;2023-05-20T02:19:11;14.40;99.90
5128;DHT22;2582;48.770;9.190;2023-05-20T02:21:40;14.30;99.90
5128;DHT22;2582;48.770;9.190;2023-05-20T02:24:06;14.20;99.90
5128;DHT22;2582;48.770;9.190;2023-05-20T02:26:33;14.00;99.90
5128;DHT22;2582;48.770;9.190;2023-05-20T02:28:59;13.90;99.90
5128;DHT22;2582;48.770;9.190;2023-05-20T02:31:24;13.90;99.90
5128;DHT22;2582;48.770;9.190;2023-05-20T02:33:50;13.90;99.90
5128;DHT22;2582;48.770;9.190;2023-05-20T02:36:16;13.80;99.90
5128;DHT22;2582;48.770;9.190;2023-05-20T02:38:42;13.80;99.90
5128;DHT22;2582;48.770;9.190;2023-05-20T02:41:07;13.80;99.90
5128;DHT22;2582;48.770;9.190;2023-05-20T02:43:33;13.80;99.90
5128;DHT22;2582;48.770;9.190;2023-05-20T02:45:59;13.80;99.90
5128;DHT22;2582;48.770;9.190;2023-05-20T02:48:24;13.70;99.90
5128;DHT22;2582;48.770;9.190;2023-05-20T02:50:50;13.60;99.90
5128;DHT22;2582;48.770;9.190;2023-05-20T02:53:17;13.50;99.90
5128;DHT22;2582;48.770;9.190;2023-05-20T02:55:45;13.50;99.90
5128;DHT22;2582;48.770;9.190;2023-05-20T02:58:11;13.60;99.90
5128;DHT22;2582;48.770;9.190;2023-05-20T03:00:38;13.50;99.90
5128;DHT22;2582;48.770;9.190;2023-05-20T03:03:05;13.40;99.90
5128;DHT22;2582;48.770;9.190;2023-05-20T03:05:32;13.40;99.90
5128;DHT22;2582;48.770;9.190;2023-05-20T03:07:58;13.40;99.90
5128;DHT22;2582;48.770;9.190;2023-05-20T03:10:23;13.40;99.90
5128;DHT22;2582;48.770;9.190;2023-05-20T03:12:49;13.30;99.90
5128;DHT22;2582;48.770;9.190;2023-05-20T03:15:14;13.40;99.90
5128;DHT22;2582;48.770;9.190;2023-05-20T03:17:40;13.30;99.90
5128;DHT22;2582;48.770;9.190;2023-05-20T03:20:06;13.40;99.90
5128;DHT22;2582;48.770;9.190;2023-05-20T03:22:32;13.20;99.90
5128;DHT22;2582;48.770;9.190;2023-05-20T03:24:57;13.20;99.90
5128;DHT22;2582;48.770;9.190;2023-05-20T03:27:25;13.10;99.90
5128;DHT22;2582;48.770;9.190;2023-05-20T03:29:51;13.10;99.90
5128;DHT22;2582;48.770;9.190;2023-05-20T03:32:19;12.90;99.90
5128;DHT22;2582;48.770;9.190;2023-05-20T03:34:45;12.90;99.90
5128;DHT22;2582;48.770;9.190;2023-05-20T03:37:11;13.00;99.90
5128;DHT22;2582;48.770;9.190;2023-05-20T03:39:36;13.00;99.90
5128;DHT22;2582;48.770;9.190;2023-05-20T03:42:02;12.90;99.90
5128;DHT22;2582;48.770;9.190;2023-05-20T03:44:27;12.90;99.90
5128;DHT22;2582;48.770;9.190;2023-05-20T03:46:53;12.80;99.90
5128;DHT22;2582;48.770;9.190;2023-05-20T03:49:18;12.80;99.90
5128;DHT22;2582;48.770;9.190;2023-05-20T03:51:44;12.80;99.90
5128;DHT22;2582;48.770;9.190;2023-05-20T03:54:10;12.90;99.90
5128;DHT22;2582;48.770;9.190;2023-05-20T03:56:36;12.90;99.90
5128;DHT22;2582;48.770;9.190;2023-05-20T03:59:01;12.90;99.90
5128;DHT22;2582;48.770;9.190;2023-05-20T04:01:27;13.00;99.90
5128;DHT22;2582;48.770;9.190;2023-05-20T04:03:53;13.10;99.90
5128;DHT22;2582;48.770;9.190;2023-05-20T04:06:18;13.20;99.90
5128;DHT22;2582;48.770;9.190;2023-05-20T04:08:44;13.30;99.90
5128;DHT22;2582;48.770;9.190;2023-05-20T04:11:10;13.40;99.90
5128;DHT22;2582;48.770;9.190;2023-05-20T04:13:35;13.30;99.90
5128;DHT22;2582;48.770;9.190;2023-05-20T04:16:01;13.30;99.90
5128;DHT22;2582;48.770;9.190;2023-05-20T04:18:27;13.20;99.90
5128;DHT22;2582;48.770;9.190;2023-05-20T04:20:56;13.40;99.90
5128;DHT22;2582;48.770;9.190;2023-05-20T04:23:21;13.50;99.90
5128;DHT22;2582;48.770;9.190;2023-05-20T04:25:48;13.60;99.90
5128;DHT22;2582;48.770;9.190;2023-05-20T04:28:14;13.70;99.90
5128;DHT22;2582;48.770;9.190;2023-05-20T04:30:40;13.70;99.90
5128;DHT22;2582;48.770;9.190;2023-05-20T04:33:06;13.60;99.90
5128;DHT22;2582;48.770;9.190;2023-05-20T04:35:32;13.70;99.90
5128;DHT22;2582;48.770;9.190;2023-05-20T04:37:59;13.90;99.90
5128;DHT22;2582;48.770;9.190;2023-05-20T04:40:25;13.90;99.90
5128;DHT22;2582;48.770;9.190;2023-05-20T04:42:51;14.00;99.90
5128;DHT22;2582;48.770;9.190;2023-05-20T04:45:17;14.00;99.90
5128;DHT22;2582;48.770;9.190;2023-05-20T04:47:43;14.00;99.90
5128;DHT22;2582;48.770;9.190;2023-05-20T04:50:10;14.00;99.90
5128;DHT22;2582;48.770;9.190;2023-05-20T04:52:39;13.90;99.90
5128;DHT22;2582;48.770;9.190;2023-05-20T04:55:07;14.00;99.90
5128;DHT22;2582;48.770;9.190;2023-05-20T04:57:34;14.00;99.90
5128;DHT22;2582;48.770;9.190;2023-05-20T05:00:00;14.10;99.90
5128;DHT22;2582;48.770;9.190;2023-05-20T05:02:26;13.90;99.90
5128;DHT22;2582;48.770;9.190;2023-05-20T05:04:52;14.00;99.90
5128;DHT22;2582;48.770;9.190;2023-05-20T05:07:17;14.20;99.90
5128;DHT22;2582;48.770;9.190;2023-05-20T05:09:43;14.40;99.90
5128;DHT22;2582;48.770;9.190;2023-05-20T05:12:09;14.50;99.90
5128;DHT22;2582;48.770;9.190;2023-05-20T05:14:34;14.70;99.90
5128;DHT22;2582;48.770;9.190;2023-05-20T05:17:00;14.90;99.90
5128;DHT22;2582;48.770;9.190;2023-05-20T05:19:25;15.00;99.90
5128;DHT22;2582;48.770;9.190;2023-05-20T05:21:51;15.10;99.90
5128;DHT22;2582;48.770;9.190;2023-05-20T05:24:16;15.20;99.90
5128;DHT22;2582;48.770;9.190;2023-05-20T05:26:42;15.20;99.90
5128;DHT22;2582;48.770;9.190;2023-05-20T05:29:08;15.40;99.90
5128;DHT22;2582;48.770;9.190;2023-05-20T05:31:33;15.50;99.90
5128;DHT22;2582;48.770;9.190;2023-05-20T05:33:59;15.70;99.90
5128;DHT22;2582;48.770;9.190;2023-05-20T05:36:25;15.80;99.90
5128;DHT22;2582;48.770;9.190;2023-05-20T05:38:50;15.70;99.90
5128;DHT22;2582;48.770;9.190;2023-05-20T05:41:16;15.70;99.90
5128;DHT22;2582;48.770;9.190;2023-05-20T05:43:41;15.80;99.90
5128;DHT22;2582;48.770;9.190;2023-05-20T05:46:07;15.70;99.90
5128;DHT22;2582;48.770;9.190;2023-05-20T05:48:34;15.70;99.90
5128;DHT22;2582;48.770;9.190;2023-05-20T05:51:00;15.80;99.90
5128;DHT22;2582;48.770;9.190;2023-05-20T05:53:26;15.50;99.90
5128;DHT22;2582;48.770;9.190;2023-05-20T05:55:51;15.50;99.90
5128;DHT22;2582;48.770;9.190;2023-05-20T05:58:17;15.70;99.90
5128;DHT22;2582;48.770;9.190;2023-05-20T06:00:42;15.70;99.90
5128;DHT22;2582;48.770;9.190;2023-05-20T06:03:08;15.90;99.90
5128;DHT22;2582;48.770;9.190;2023-05-20T06:05:34;16.00;99.90
5128;DHT22;2582;48.770;9.190;2023-05-20T06:07:59;16.20;99.90
5128;DHT22;2582;48.770;9.190;2023-05-20T06:10:25;16.30;99.90
5128;DHT22;2582;48.770;9.190;2023-05-20T06:12:50;16.20;99.90
5128;DHT22;2582;48.770;9.190;2023-05-20T06:15:16;16.00;99.90
5128;DHT22;2582;48.770;9.190;2023-05-20T06:17:41;15.90;99.90
5128;DHT22;2582;48.770;9.190;2023-05-20T06:20:07;16.00;99.90
5128;DHT22;2582;48.770;9.190;2023-05-20T06:22:33;15.70;99.90
5128;DHT22;2582;48.770;9.190;2023-05-20T06:24:58;15.90;99.90
5128;DHT22;2582;48.770;9.190;2023-05-20T06:27:26;15.80;99.90
5128;DHT22;2582;48.770;9.190;2023-05-20T06:29:52;16.00;99.90
5128;DHT22;2582;48.770;9.190;2023-05-20T06:32:17;16.20;99.90
5128;DHT22;2582;48.770;9.190;2023-05-20T06:34:43;16.20;99.90
5128;DHT22;2582;48.770;9.190;2023-05-20T06:37:09;15.90;99.90
5128;DHT22;2582;48.770;9.190;2023-05-20T06:39:35;15.90;99.90
5128;DHT22;2582;48.770;9.190;2023-05-20T06:42:01;16.10;99.90
5128;DHT22;2582;48.770;9.190;2023-05-20T06:44:26;16.30;99.90
5128;DHT22;2582;48.770;9.190;2023-05-20T06:46:52;16.60;99.90
5128;DHT22;2582;48.770;9.190;2023-05-20T06:49:17;17.00;99.90
5128;DHT22;2582;48.770;9.190;2023-05-20T06:51:43;17.30;99.90
5128;DHT22;2582;48.770;9.190;2023-05-20T06:54:09;17.40;99.90
5128;DHT22;2582;48.770;9.190;2023-05-20T06:56:35;17.10;99.90
5128;DHT22;2582;48.770;9.190;2023-05-20T06:59:00;17.00;99.90
5128;DHT22;2582;48.770;9.190;2023-05-20T07:01:26;17.00;99.90
5128;DHT22;2582;48.770;9.190;2023-05-20T07:03:51;17.30;99.90
5128;DHT22;2582;48.770;9.190;2023-05-20T07:06:17;17.60;99.90
5128;DHT22;2582;48.770;9.190;2023-05-20T07:08:43;17.30;99.90
5128;DHT22;2582;48.770;9.190;2023-05-20T07:11:08;17.10;99.90
5128;DHT22;2582;48.770;9.190;2023-05-20T07:13:34;16.90;99.90
5128;DHT22;2582;48.770;9.190;2023-05-20T07:15:59;17.10;99.90
5128;DHT22;2582;48.770;9.190;2023-05-20T07:18:25;17.20;99.90
5128;DHT22;2582;48.770;9.190;2023-05-20T07:20:51;17.20;99.90
5128;DHT22;2582;48.770;9.190;2023-05-20T07:23:17;17.20;99.90
5128;DHT22;2582;48.770;9.190;2023-05-20T07:25:42;17.30;99.90
5128;DHT22;2582;48.770;9.190;2023-05-20T07:28:08;17.20;99.90
5128;DHT22;2582;48.770;9.190;2023-05-20T07:30:33;17.30;99.90
5128;DHT22;2582;48.770;9.190;2023-05-20T07:32:59;17.50;99.90
5128;DHT22;2582;48.770;9.190;2023-05-20T07:35:24;17.10;99.90
5128;DHT22;2582;48.770;9.190;2023-05-20T07:37:50;17.10;99.90
5128;DHT22;2582;48.770;9.190;2023-05-20T07:40:16;17.40;99.90
5128;DHT22;2582;48.770;9.190;2023-05-20T07:42:42;17.50;99.90
5128;DHT22;2582;48.770;9.190;2023-05-20T07:45:08;17.10;99.90
5128;DHT22;2582;48.770;9.190;2023-05-20T07:47:33;16.90;99.90
5128;DHT22;2582;48.770;9.190;2023-05-20T07:49:59;17.00;99.90
5128;DHT22;2582;48.770;9.190;2023-05-20T07:52:25;17.10;99.90
5128;DHT22;2582;48.770;9.190;2023-05-20T07:54:50;17.30;99.90
5128;DHT22;2582;48.770;9.190;2023-05-20T07:57:16;17.20;99.90
5128;DHT22;2582;48.770;9.190;2023-05-20T07:59:41;17.30;99.90
5128;DHT22;2582;48.770;9.190;2023-05-20T08:02:07;17.60;99.90
5128;DHT22;2582;48.770;9.190;2023-05-20T08:04:33;17.90;99.90
5128;DHT22;2582;48.770;9.190;2023-05-20T08:06:59;18.10;99.90
5128;DHT22;2582;48.770;9.190;2023-05-20T08:09:24;18.20;99.90
5128;DHT22;2582;48.770;9.190;2023-05-20T08:11:50;17.90;99.90
5128;DHT22;2582;48.770;9.190;2023-05-20T08:14:16;17.90;99.90
5128;DHT22;2582;48.770;9.190;2023-05-20T08:16:41;18.00;99.90
5128;DHT22;2582;48.770;9.190;2023-05-20T08:19:07;18.20;99.90
5128;DHT22;2582;48.770;9.190;2023-05-20T08:21:33;18.30;99.90
5128;DHT22;2582;48.770;9.190;2023-05-20T08:23:59;18.40;99.90
5128;DHT22;2582;48.770;9.190;2023-05-20T08:26:25;18.70;99.90
5128;DHT22;2582;48.770;9.190;2023-05-20T08:28:51;18.70;99.90
5128;DHT22;2582;48.770;9.190;2023-05-20T08:31:17;18.30;99.90
5128;DHT22;2582;48.770;9.190;2023-05-20T08:33:42;18.30;99.90
5128;DHT22;2582;48.770;9.190;2023-05-20T08:36:08;18.40;99.90
5128;DHT22;2582;48.770;9.190;2023-05-20T08:38:34;18.60;99.90
5128;DHT22;2582;48.770;9.190;2023-05-20T08:41:00;18.90;99.90
5128;DHT22;2582;48.770;9.190;2023-05-20T08:43:26;19.10;99.90
5128;DHT22;2582;48.770;9.190;2023-05-20T08:45:51;19.00;99.90
5128;DHT22;2582;48.770;9.190;2023-05-20T08:48:17;19.10;99.90
5128;DHT22;2582;48.770;9.190;2023-05-20T08:50:45;18.90;99.90
5128;DHT22;2582;48.770;9.190;2023-05-20T08:53:14;19.00;99.90
5128;DHT22;2582;48.770;9.190;2023-05-20T08:55:44;19.30;99.90
5128;DHT22;2582;48.770;9.190;2023-05-20T08:58:11;19.10;99.90
5128;DHT22;2582;48.770;9.190;2023-05-20T09:00:36;18.90;99.90
5128;DHT22;2582;48.770;9.190;2023-05-20T09:03:03;18.90;99.90
5128;DHT22;2582;48.770;9.190;2023-05-20T09:05:29;19.10;99.90
5128;DHT22;2582;48.770;9.190;2023-05-20T09:08:08;19.70;99.90
5128;DHT22;2582;48.770;9.190;2023-05-20T09:10:34;19.90;99.90
5128;DHT22;2582;48.770;9.190;2023-05-20T09:13:01;19.40;99.90
5128;DHT22;2582;48.770;9.190;2023-05-20T09:15:32;18.90;99.90
5128;DHT22;2582;48.770;9.190;2023-05-20T09:18:02;18.70;99.90
5128;DHT22;2582;48.770;9.190;2023-05-20T09:20:28;18.70;99.90
5128;DHT22;2582;48.770;9.190;2023-05-20T09:23:01;18.70;99.90
5128;DHT22;2582;48.770;9.190;2023-05-20T09:25:27;19.00;99.90
5128;DHT22;2582;48.770;9.190;2023-05-20T09:27:56;18.90;99.90
5128;DHT22;2582;48.770;9.190;2023-05-20T09:30:22;18.90;99.90
5128;DHT22;2582;48.770;9.190;2023-05-20T09:32:58;19.20;99.90
5128;DHT22;2582;48.770;9.190;2023-05-20T09:35:26;19.80;99.90
5128;DHT22;2582;48.770;9.190;2023-05-20T09:37:54;19.90;99.90
5128;DHT22;2582;48.770;9.190;2023-05-20T09:40:29;19.40;99.90
5128;DHT22;2582;48.770;9.190;2023-05-20T09:45:23;20.10;99.90
5128;DHT22;2582;48.770;9.190;2023-05-20T09:47:52;20.30;99.90
5128;DHT22;2582;48.770;9.190;2023-05-20T09:50:19;20.20;99.90
5128;DHT22;2582;48.770;9.190;2023-05-20T09:52:47;20.30;99.90
5128;DHT22;2582;48.770;9.190;2023-05-20T09:55:14;20.60;99.90
5128;DHT22;2582;48.770;9.190;2023-05-20T09:57:41;20.50;99.90
5128;DHT22;2582;48.770;9.190;2023-05-20T10:00:07;20.70;99.90
5128;DHT22;2582;48.770;9.190;2023-05-20T10:02:33;20.50;99.90
5128;DHT22;2582;48.770;9.190;2023-05-20T10:05:03;20.40;99.90
5128;DHT22;2582;48.770;9.190;2023-05-20T10:07:55;20.20;99.90
5128;DHT22;2582;48.770;9.190;2023-05-20T10:10:45;20.30;99.90
5128;DHT22;2582;48.770;9.190;2023-05-20T10:13:46;20.50;99.90
5128;DHT22;2582;48.770;9.190;2023-05-20T10:16:43;20.70;99.90
5128;DHT22;2582;48.770;9.190;2023-05-20T10:21:35;20.80;99.90
5128;DHT22;2582;48.770;9.190;2023-05-20T10:24:08;21.10;99.90
5128;DHT22;2582;48.770;9.190;2023-05-20T10:26:40;21.00;99.90
5128;DHT22;2582;48.770;9.190;2023-05-20T10:29:15;21.10;99.90
5128;DHT22;2582;48.770;9.190;2023-05-20T10:31:48;20.90;99.90
5128;DHT22;2582;48.770;9.190;2023-05-20T10:34:14;21.00;99.90
5128;DHT22;2582;48.770;9.190;2023-05-20T10:37:05;20.90;99.90
5128;DHT22;2582;48.770;9.190;2023-05-20T10:39:31;20.90;99.90
5128;DHT22;2582;48.770;9.190;2023-05-20T10:42:09;20.90;99.90
5128;DHT22;2582;48.770;9.190;2023-05-20T10:44:45;21.30;99.90
5128;DHT22;2582;48.770;9.190;2023-05-20T10:47:12;21.40;99.90
5128;DHT22;2582;48.770;9.190;2023-05-20T10:49:44;21.60;99.90
5128;DHT22;2582;48.770;9.190;2023-05-20T10:52:11;22.10;99.90
5128;DHT22;2582;48.770;9.190;2023-05-20T10:55:06;22.50;99.90
5128;DHT22;2582;48.770;9.190;2023-05-20T10:57:33;22.20;99.90
5128;DHT22;2582;48.770;9.190;2023-05-20T10:59:58;22.20;99.90
5128;DHT22;2582;48.770;9.190;2023-05-20T11:02:26;22.10;99.90
5128;DHT22;2582;48.770;9.190;2023-05-20T11:04:55;22.00;99.90
5128;DHT22;2582;48.770;9.190;2023-05-20T11:07:27;22.10;99.90
5128;DHT22;2582;48.770;9.190;2023-05-20T11:09:54;22.30;99.90
5128;DHT22;2582;48.770;9.190;2023-05-20T11:12:24;22.20;99.90
5128;DHT22;2582;48.770;9.190;2023-05-20T11:14:50;22.40;99.90
5128;DHT22;2582;48.770;9.190;2023-05-20T11:17:16;22.30;99.90
5128;DHT22;2582;48.770;9.190;2023-05-20T11:19:42;22.80;99.90
5128;DHT22;2582;48.770;9.190;2023-05-20T11:22:08;23.70;99.90
5128;DHT22;2582;48.770;9.190;2023-05-20T11:24:34;24.10;98.30
5128;DHT22;2582;48.770;9.190;2023-05-20T11:27:05;24.60;98.00
5128;DHT22;2582;48.770;9.190;2023-05-20T11:29:31;24.30;97.60
5128;DHT22;2582;48.770;9.190;2023-05-20T11:31:58;23.70;97.90
5128;DHT22;2582;48.770;9.190;2023-05-20T11:34:24;25.50;97.30
5128;DHT22;2582;48.770;9.190;2023-05-20T11:36:57;26.90;93.70
5128;DHT22;2582;48.770;9.190;2023-05-20T11:39:24;27.50;91.70
5128;DHT22;2582;48.770;9.190;2023-05-20T11:41:51;27.70;90.90
5128;DHT22;2582;48.770;9.190;2023-05-20T11:44:19;27.90;90.20
5128;DHT22;2582;48.770;9.190;2023-05-20T11:46:46;28.10;89.30
5128;DHT22;2582;48.770;9.190;2023-05-20T11:49:12;26.60;89.70
5128;DHT22;2582;48.770;9.190;2023-05-20T11:51:38;26.50;91.60
5128;DHT22;2582;48.770;9.190;2023-05-20T11:54:05;26.30;91.40
5128;DHT22;2582;48.770;9.190;2023-05-20T11:56:38;25.30;92.60
5128;DHT22;2582;48.770;9.190;2023-05-20T11:59:07;24.90;93.00
5128;DHT22;2582;48.770;9.190;2023-05-20T12:01:35;24.80;93.40
5128;DHT22;2582;48.770;9.190;2023-05-20T12:04:10;24.70;93.50
5128;DHT22;2582;48.770;9.190;2023-05-20T12:06:40;25.00;94.60
5128;DHT22;2582;48.770;9.190;2023-05-20T12:09:07;25.00;93.10
5128;DHT22;2582;48.770;9.190;2023-05-20T12:11:37;24.90;93.70
5128;DHT22;2582;48.770;9.190;2023-05-20T12:14:04;25.70;94.10
5128;DHT22;2582;48.770;9.190;2023-05-20T12:16:31;26.30;91.80
5128;DHT22;2582;48.770;9.190;2023-05-20T12:18:57;27.60;90.30
5128;DHT22;2582;48.770;9.190;2023-05-20T12:21:22;28.10;88.70
5128;DHT22;2582;48.770;9.190;2023-05-20T12:23:48;28.90;87.30
5128;DHT22;2582;48.770;9.190;2023-05-20T12:26:14;28.60;85.80
5128;DHT22;2582;48.770;9.190;2023-05-20T12:28:39;28.60;84.70
5128;DHT22;2582;48.770;9.190;2023-05-20T12:31:05;28.00;86.70
5128;DHT22;2582;48.770;9.190;2023-05-20T12:33:31;27.80;86.90
5128;DHT22;2582;48.770;9.190;2023-05-20T12:35:57;27.60;86.50
5128;DHT22;2582;48.770;9.190;2023-05-20T12:38:23;27.60;87.60
5128;DHT22;2582;48.770;9.190;2023-05-20T12:40:48;27.30;88.40
5128;DHT22;2582;48.770;9.190;2023-05-20T12:43:14;26.70;88.00
5128;DHT22;2582;48.770;9.190;2023-05-20T12:45:39;27.20;88.00
5128;DHT22;2582;48.770;9.190;2023-05-20T12:48:05;27.20;87.70
5128;DHT22;2582;48.770;9.190;2023-05-20T12:50:34;28.30;87.80
5128;DHT22;2582;48.770;9.190;2023-05-20T12:52:59;29.40;80.00
5128;DHT22;2582;48.770;9.190;2023-05-20T12:55:25;29.90;78.30
5128;DHT22;2582;48.770;9.190;2023-05-20T12:57:50;28.30;81.20
5128;DHT22;2582;48.770;9.190;2023-05-20T13:00:16;27.20;85.40
5128;DHT22;2582;48.770;9.190;2023-05-20T13:02:42;26.60;86.70
5128;DHT22;2582;48.770;9.190;2023-05-20T13:05:08;26.50;87.20
5128;DHT22;2582;48.770;9.190;2023-05-20T13:07:34;27.40;86.80
5128;DHT22;2582;48.770;9.190;2023-05-20T13:10:00;28.90;83.10
5128;DHT22;2582;48.770;9.190;2023-05-20T13:12:25;28.70;82.30
5128;DHT22;2582;48.770;9.190;2023-05-20T13:14:51;28.00;80.70
5128;DHT22;2582;48.770;9.190;2023-05-20T13:17:17;26.80;82.70
5128;DHT22;2582;48.770;9.190;2023-05-20T13:19:43;27.00;82.20
5128;DHT22;2582;48.770;9.190;2023-05-20T13:22:10;26.70;83.80
5128;DHT22;2582;48.770;9.190;2023-05-20T13:24:36;27.10;82.80
5128;DHT22;2582;48.770;9.190;2023-05-20T13:27:02;28.00;81.00
5128;DHT22;2582;48.770;9.190;2023-05-20T13:29:27;28.40;80.70
5128;DHT22;2582;48.770;9.190;2023-05-20T13:31:53;29.20;76.50
5128;DHT22;2582;48.770;9.190;2023-05-20T13:34:19;29.70;76.70
5128;DHT22;2582;48.770;9.190;2023-05-20T13:36:45;27.90;78.20
5128;DHT22;2582;48.770;9.190;2023-05-20T13:39:12;27.60;79.80
5128;DHT22;2582;48.770;9.190;2023-05-20T13:41:37;27.30;80.80
5128;DHT22;2582;48.770;9.190;2023-05-20T13:44:03;26.80;82.00
5128;DHT22;2582;48.770;9.190;2023-05-20T13:46:29;26.60;82.10
5128;DHT22;2582;48.770;9.190;2023-05-20T13:48:54;27.50;82.90
5128;DHT22;2582;48.770;9.190;2023-05-20T13:51:20;29.10;77.60
5128;DHT22;2582;48.770;9.190;2023-05-20T13:53:46;29.30;74.20
5128;DHT22;2582;48.770;9.190;2023-05-20T13:56:11;29.20;74.80
5128;DHT22;2582;48.770;9.190;2023-05-20T13:58:37;28.60;75.80
5128;DHT22;2582;48.770;9.190;2023-05-20T14:01:03;28.70;76.60
5128;DHT22;2582;48.770;9.190;2023-05-20T14:03:30;27.80;77.90
5128;DHT22;2582;48.770;9.190;2023-05-20T14:05:57;26.90;79.70
5128;DHT22;2582;48.770;9.190;2023-05-20T14:08:23;26.80;80.40
5128;DHT22;2582;48.770;9.190;2023-05-20T14:10:49;26.70;81.30
5128;DHT22;2582;48.770;9.190;2023-05-20T14:13:19;26.90;80.50
5128;DHT22;2582;48.770;9.190;2023-05-20T14:15:45;26.90;81.20
5128;DHT22;2582;48.770;9.190;2023-05-20T14:18:11;26.70;80.40
5128;DHT22;2582;48.770;9.190;2023-05-20T14:20:36;26.70;81.40
5128;DHT22;2582;48.770;9.190;2023-05-20T14:23:02;26.70;81.00
5128;DHT22;2582;48.770;9.190;2023-05-20T14:25:27;26.60;81.60
5128;DHT22;2582;48.770;9.190;2023-05-20T14:27:53;26.60;82.20
5128;DHT22;2582;48.770;9.190;2023-05-20T14:30:19;26.50;82.40
5128;DHT22;2582;48.770;9.190;2023-05-20T14:32:44;26.60;82.30
5128;DHT22;2582;48.770;9.190;2023-05-20T14:35:10;26.70;81.80
5128;DHT22;2582;48.770;9.190;2023-05-20T14:37:35;26.40;80.60
5128;DHT22;2582;48.770;9.190;2023-05-20T14:40:03;26.40;82.00
5128;DHT22;2582;48.770;9.190;2023-05-20T14:42:29;26.30;81.30
5128;DHT22;2582;48.770;9.190;2023-05-20T14:44:55;26.50;81.50
5128;DHT22;2582;48.770;9.190;2023-05-20T14:47:20;26.30;80.30
5128;DHT22;2582;48.770;9.190;2023-05-20T14:49:46;25.80;81.90
5128;DHT22;2582;48.770;9.190;2023-05-20T14:52:14;25.40;83.10
5128;DHT22;2582;48.770;9.190;2023-05-20T14:54:40;25.30;85.00
5128;DHT22;2582;48.770;9.190;2023-05-20T14:57:06;26.30;85.70
5128;DHT22;2582;48.770;9.190;2023-05-20T14:59:32;27.10;82.00
5128;DHT22;2582;48.770;9.190;2023-05-20T15:01:58;28.50;79.90
5128;DHT22;2582;48.770;9.190;2023-05-20T15:04:23;28.70;76.50
5128;DHT22;2582;48.770;9.190;2023-05-20T15:06:49;29.00;76.20
5128;DHT22;2582;48.770;9.190;2023-05-20T15:09:15;28.30;76.20
5128;DHT22;2582;48.770;9.190;2023-05-20T15:11:41;27.70;76.80
5128;DHT22;2582;48.770;9.190;2023-05-20T15:14:06;26.10;79.70
5128;DHT22;2582;48.770;9.190;2023-05-20T15:16:32;25.60;82.00
5128;DHT22;2582;48.770;9.190;2023-05-20T15:18:57;25.40;82.30
5128;DHT22;2582;48.770;9.190;2023-05-20T15:21:23;25.40;82.60
5128;DHT22;2582;48.770;9.190;2023-05-20T15:23:48;25.50;83.30
5128;DHT22;2582;48.770;9.190;2023-05-20T15:26:14;25.40;82.20
5128;DHT22;2582;48.770;9.190;2023-05-20T15:28:39;25.20;83.50
5128;DHT22;2582;48.770;9.190;2023-05-20T15:31:05;25.30;83.70
5128;DHT22;2582;48.770;9.190;2023-05-20T15:33:32;25.70;83.50
5128;DHT22;2582;48.770;9.190;2023-05-20T15:35:58;26.30;82.00
5128;DHT22;2582;48.770;9.190;2023-05-20T15:38:23;26.90;80.80
5128;DHT22;2582;48.770;9.190;2023-05-20T15:40:49;26.90;80.50
5128;DHT22;2582;48.770;9.190;2023-05-20T15:43:15;27.60;80.50
5128;DHT22;2582;48.770;9.190;2023-05-20T15:45:41;27.90;79.80
5128;DHT22;2582;48.770;9.190;2023-05-20T15:48:07;27.90;77.80
5128;DHT22;2582;48.770;9.190;2023-05-20T15:50:34;27.30;78.60
5128;DHT22;2582;48.770;9.190;2023-05-20T15:53:00;26.80;79.70
5128;DHT22;2582;48.770;9.190;2023-05-20T15:55:26;26.20;81.80
5128;DHT22;2582;48.770;9.190;2023-05-20T15:57:51;26.20;82.20
5128;DHT22;2582;48.770;9.190;2023-05-20T16:00:20;26.90;81.30
5128;DHT22;2582;48.770;9.190;2023-05-20T16:02:46;27.10;79.20
5128;DHT22;2582;48.770;9.190;2023-05-20T16:05:12;27.80;78.20